sensor_id;sensor_type;location;lat;lon;timestamp;P1;durP1;ratioP1;P2;durP2;ratioP2
73397;SDS011;63606;52.328;20.964;2022-09-27T00:00:38;18.98;;;11.02;;
73397;SDS011;63606;52.328;20.964;2022-09-27T00:03:06;23.27;;;11.57;;
73397;SDS011;63606;52.328;20.964;2022-09-27T00:05:32;19.75;;;11.52;;
73397;SDS011;63606;52.328;20.964;2022-09-27T00:07:58;21.67;;;12.25;;
73397;SDS011;63606;52.328;20.964;2022-09-27T00:10:23;21.58;;;12.15;;
73397;SDS011;63606;52.328;20.964;2022-09-27T00:12:49;17.90;;;10.90;;
73397;SDS011;63606;52.328;20.964;2022-09-27T00:15:15;23.98;;;11.85;;
73397;SDS011;63606;52.328;20.964;2022-09-27T00:17:41;24.63;;;12.35;;
73397;SDS011;63606;52.328;20.964;2022-09-27T00:20:07;23.33;;;12.50;;
73397;SDS011;63606;52.328;20.964;2022-09-27T00:22:33;23.92;;;13.23;;
73397;SDS011;63606;52.328;20.964;2022-09-27T00:24:59;22.50;;;11.35;;
73397;SDS011;63606;52.328;20.964;2022-09-27T00:27:25;19.85;;;11.57;;
73397;SDS011;63606;52.328;20.964;2022-09-27T00:29:52;23.35;;;11.57;;
73397;SDS011;63606;52.328;20.964;2022-09-27T00:32:18;21.92;;;11.98;;
73397;SDS011;63606;52.328;20.964;2022-09-27T00:34:44;22.00;;;12.57;;
73397;SDS011;63606;52.328;20.964;2022-09-27T00:37:10;21.85;;;12.05;;
73397;SDS011;63606;52.328;20.964;2022-09-27T00:39:36;21.15;;;11.88;;
73397;SDS011;63606;52.328;20.964;2022-09-27T00:42:03;21.55;;;12.75;;
73397;SDS011;63606;52.328;20.964;2022-09-27T00:47:05;22.73;;;11.77;;
73397;SDS011;63606;52.328;20.964;2022-09-27T00:49:35;23.10;;;12.52;;
73397;SDS011;63606;52.328;20.964;2022-09-27T00:52:10;21.08;;;11.60;;
73397;SDS011;63606;52.328;20.964;2022-09-27T00:54:43;21.70;;;12.35;;
73397;SDS011;63606;52.328;20.964;2022-09-27T00:57:12;24.60;;;13.18;;
73397;SDS011;63606;52.328;20.964;2022-09-27T00:59:39;21.77;;;13.07;;
73397;SDS011;63606;52.328;20.964;2022-09-27T01:02:09;23.35;;;12.68;;
73397;SDS011;63606;52.328;20.964;2022-09-27T01:04:36;21.15;;;12.90;;
73397;SDS011;63606;52.328;20.964;2022-09-27T01:07:03;26.27;;;14.43;;
73397;SDS011;63606;52.328;20.964;2022-09-27T01:09:29;21.38;;;13.43;;
73397;SDS011;63606;52.328;20.964;2022-09-27T01:34:51;24.83;;;14.57;;
73397;SDS011;63606;52.328;20.964;2022-09-27T01:39:49;25.85;;;13.82;;
73397;SDS011;63606;52.328;20.964;2022-09-27T01:45:04;24.80;;;12.82;;
73397;SDS011;63606;52.328;20.964;2022-09-27T01:47:44;28.10;;;13.80;;
73397;SDS011;63606;52.328;20.964;2022-09-27T01:50:15;24.67;;;13.75;;
73397;SDS011;63606;52.328;20.964;2022-09-27T01:55:34;24.92;;;14.02;;
73397;SDS011;63606;52.328;20.964;2022-09-27T01:58:07;26.25;;;13.63;;
73397;SDS011;63606;52.328;20.964;2022-09-27T02:00:51;22.60;;;13.77;;
73397;SDS011;63606;52.328;20.964;2022-09-27T02:03:25;28.27;;;14.52;;
73397;SDS011;63606;52.328;20.964;2022-09-27T02:05:57;25.13;;;14.52;;
73397;SDS011;63606;52.328;20.964;2022-09-27T02:08:37;24.88;;;14.18;;
73397;SDS011;63606;52.328;20.964;2022-09-27T02:11:09;24.17;;;13.85;;
73397;SDS011;63606;52.328;20.964;2022-09-27T02:13:39;23.50;;;13.90;;
73397;SDS011;63606;52.328;20.964;2022-09-27T02:24:57;25.80;;;15.13;;
73397;SDS011;63606;52.328;20.964;2022-09-27T02:27:34;28.60;;;15.15;;
73397;SDS011;63606;52.328;20.964;2022-09-27T02:30:13;27.02;;;15.50;;
73397;SDS011;63606;52.328;20.964;2022-09-27T02:32:41;25.50;;;14.35;;
73397;SDS011;63606;52.328;20.964;2022-09-27T02:35:12;29.15;;;16.05;;
73397;SDS011;63606;52.328;20.964;2022-09-27T02:37:41;24.40;;;15.07;;
73397;SDS011;63606;52.328;20.964;2022-09-27T02:40:07;27.13;;;15.25;;
73397;SDS011;63606;52.328;20.964;2022-09-27T02:42:34;29.50;;;15.32;;
73397;SDS011;63606;52.328;20.964;2022-09-27T02:45:00;24.95;;;15.15;;
73397;SDS011;63606;52.328;20.964;2022-09-27T02:50:13;28.67;;;15.05;;
73397;SDS011;63606;52.328;20.964;2022-09-27T02:58:15;26.90;;;15.63;;
73397;SDS011;63606;52.328;20.964;2022-09-27T03:00:56;26.80;;;15.90;;
73397;SDS011;63606;52.328;20.964;2022-09-27T03:03:41;23.90;;;14.52;;
73397;SDS011;63606;52.328;20.964;2022-09-27T03:06:14;25.23;;;15.15;;
73397;SDS011;63606;52.328;20.964;2022-09-27T03:08:42;28.48;;;14.70;;
73397;SDS011;63606;52.328;20.964;2022-09-27T03:11:08;28.10;;;15.50;;
73397;SDS011;63606;52.328;20.964;2022-09-27T03:13:34;27.25;;;14.30;;
73397;SDS011;63606;52.328;20.964;2022-09-27T03:16:03;25.75;;;14.98;;
73397;SDS011;63606;52.328;20.964;2022-09-27T03:18:31;26.88;;;15.57;;
73397;SDS011;63606;52.328;20.964;2022-09-27T03:20:57;27.75;;;14.38;;
73397;SDS011;63606;52.328;20.964;2022-09-27T03:23:23;27.52;;;15.75;;
73397;SDS011;63606;52.328;20.964;2022-09-27T03:25:49;27.20;;;14.73;;
73397;SDS011;63606;52.328;20.964;2022-09-27T03:28:15;29.23;;;15.95;;
73397;SDS011;63606;52.328;20.964;2022-09-27T03:30:43;26.58;;;15.48;;
73397;SDS011;63606;52.328;20.964;2022-09-27T03:33:09;42.88;;;14.50;;
73397;SDS011;63606;52.328;20.964;2022-09-27T03:35:35;26.02;;;15.77;;
73397;SDS011;63606;52.328;20.964;2022-09-27T03:38:01;27.88;;;14.48;;
73397;SDS011;63606;52.328;20.964;2022-09-27T03:40:27;24.25;;;15.15;;
73397;SDS011;63606;52.328;20.964;2022-09-27T03:42:53;27.95;;;15.25;;
73397;SDS011;63606;52.328;20.964;2022-09-27T03:45:19;28.90;;;15.80;;
73397;SDS011;63606;52.328;20.964;2022-09-27T03:47:44;29.40;;;15.57;;
73397;SDS011;63606;52.328;20.964;2022-09-27T03:50:10;27.88;;;15.55;;
73397;SDS011;63606;52.328;20.964;2022-09-27T03:52:36;26.92;;;15.45;;
73397;SDS011;63606;52.328;20.964;2022-09-27T03:55:03;31.85;;;16.23;;
73397;SDS011;63606;52.328;20.964;2022-09-27T03:57:29;29.40;;;15.75;;
73397;SDS011;63606;52.328;20.964;2022-09-27T03:59:56;31.60;;;16.70;;
73397;SDS011;63606;52.328;20.964;2022-09-27T04:02:24;32.67;;;17.67;;
73397;SDS011;63606;52.328;20.964;2022-09-27T04:04:50;34.25;;;17.27;;
73397;SDS011;63606;52.328;20.964;2022-09-27T04:07:15;30.20;;;16.60;;
73397;SDS011;63606;52.328;20.964;2022-09-27T04:09:42;33.65;;;17.17;;
73397;SDS011;63606;52.328;20.964;2022-09-27T04:12:08;33.35;;;17.67;;
73397;SDS011;63606;52.328;20.964;2022-09-27T04:14:34;33.58;;;17.40;;
73397;SDS011;63606;52.328;20.964;2022-09-27T04:17:00;34.55;;;18.17;;
73397;SDS011;63606;52.328;20.964;2022-09-27T04:19:26;37.83;;;19.00;;
73397;SDS011;63606;52.328;20.964;2022-09-27T04:21:51;39.03;;;18.83;;
73397;SDS011;63606;52.328;20.964;2022-09-27T04:24:17;39.78;;;19.83;;
73397;SDS011;63606;52.328;20.964;2022-09-27T04:26:42;41.08;;;19.98;;
73397;SDS011;63606;52.328;20.964;2022-09-27T04:29:08;48.78;;;19.60;;
73397;SDS011;63606;52.328;20.964;2022-09-27T04:31:35;43.03;;;20.17;;
73397;SDS011;63606;52.328;20.964;2022-09-27T04:34:03;40.30;;;18.75;;
73397;SDS011;63606;52.328;20.964;2022-09-27T04:36:29;42.20;;;19.58;;
73397;SDS011;63606;52.328;20.964;2022-09-27T04:38:57;41.72;;;20.27;;
73397;SDS011;63606;52.328;20.964;2022-09-27T04:43:50;43.00;;;20.27;;
73397;SDS011;63606;52.328;20.964;2022-09-27T04:46:16;46.05;;;20.58;;
73397;SDS011;63606;52.328;20.964;2022-09-27T04:48:43;43.67;;;20.27;;
73397;SDS011;63606;52.328;20.964;2022-09-27T04:51:09;38.83;;;19.30;;
73397;SDS011;63606;52.328;20.964;2022-09-27T04:53:35;47.25;;;21.05;;
73397;SDS011;63606;52.328;20.964;2022-09-27T04:56:00;52.08;;;22.45;;
73397;SDS011;63606;52.328;20.964;2022-09-27T04:58:30;47.17;;;19.85;;
73397;SDS011;63606;52.328;20.964;2022-09-27T05:00:57;48.60;;;21.75;;
73397;SDS011;63606;52.328;20.964;2022-09-27T05:03:23;56.22;;;23.08;;
73397;SDS011;63606;52.328;20.964;2022-09-27T05:05:49;54.35;;;22.60;;
73397;SDS011;63606;52.328;20.964;2022-09-27T05:08:14;54.05;;;23.35;;
73397;SDS011;63606;52.328;20.964;2022-09-27T05:10:40;56.45;;;23.13;;
73397;SDS011;63606;52.328;20.964;2022-09-27T05:13:06;52.40;;;21.67;;
73397;SDS011;63606;52.328;20.964;2022-09-27T05:15:31;51.42;;;21.88;;
73397;SDS011;63606;52.328;20.964;2022-09-27T05:17:58;52.35;;;21.70;;
73397;SDS011;63606;52.328;20.964;2022-09-27T05:20:24;49.33;;;21.70;;
73397;SDS011;63606;52.328;20.964;2022-09-27T05:22:50;55.20;;;23.85;;
73397;SDS011;63606;52.328;20.964;2022-09-27T05:25:16;52.42;;;21.90;;
73397;SDS011;63606;52.328;20.964;2022-09-27T05:27:42;57.40;;;24.13;;
73397;SDS011;63606;52.328;20.964;2022-09-27T05:30:08;57.33;;;25.35;;
73397;SDS011;63606;52.328;20.964;2022-09-27T05:32:34;59.78;;;24.35;;
73397;SDS011;63606;52.328;20.964;2022-09-27T05:35:00;53.63;;;23.73;;
73397;SDS011;63606;52.328;20.964;2022-09-27T05:37:26;53.47;;;20.45;;
73397;SDS011;63606;52.328;20.964;2022-09-27T05:39:51;57.90;;;24.05;;
73397;SDS011;63606;52.328;20.964;2022-09-27T05:42:17;53.97;;;24.20;;
73397;SDS011;63606;52.328;20.964;2022-09-27T05:44:43;56.67;;;23.27;;
73397;SDS011;63606;52.328;20.964;2022-09-27T05:49:38;52.85;;;22.33;;
73397;SDS011;63606;52.328;20.964;2022-09-27T05:52:04;56.10;;;23.88;;
73397;SDS011;63606;52.328;20.964;2022-09-27T05:54:30;62.63;;;24.63;;
73397;SDS011;63606;52.328;20.964;2022-09-27T05:56:57;53.83;;;23.50;;
73397;SDS011;63606;52.328;20.964;2022-09-27T05:59:26;58.58;;;25.30;;
73397;SDS011;63606;52.328;20.964;2022-09-27T06:04:18;63.97;;;24.63;;
73397;SDS011;63606;52.328;20.964;2022-09-27T06:06:45;71.00;;;26.60;;
73397;SDS011;63606;52.328;20.964;2022-09-27T06:09:12;58.63;;;24.73;;
73397;SDS011;63606;52.328;20.964;2022-09-27T06:11:42;63.90;;;26.33;;
73397;SDS011;63606;52.328;20.964;2022-09-27T06:14:09;61.28;;;25.00;;
73397;SDS011;63606;52.328;20.964;2022-09-27T06:16:36;60.38;;;26.00;;
73397;SDS011;63606;52.328;20.964;2022-09-27T06:19:02;66.00;;;27.02;;
73397;SDS011;63606;52.328;20.964;2022-09-27T06:21:28;69.45;;;26.42;;
73397;SDS011;63606;52.328;20.964;2022-09-27T06:23:56;72.78;;;25.48;;
73397;SDS011;63606;52.328;20.964;2022-09-27T06:26:23;72.97;;;25.55;;
73397;SDS011;63606;52.328;20.964;2022-09-27T06:28:51;69.32;;;23.83;;
73397;SDS011;63606;52.328;20.964;2022-09-27T06:31:17;73.53;;;26.58;;
73397;SDS011;63606;52.328;20.964;2022-09-27T06:33:42;69.65;;;25.42;;
73397;SDS011;63606;52.328;20.964;2022-09-27T06:36:09;69.10;;;25.92;;
73397;SDS011;63606;52.328;20.964;2022-09-27T06:38:34;66.00;;;25.67;;
73397;SDS011;63606;52.328;20.964;2022-09-27T06:41:00;71.97;;;24.95;;
73397;SDS011;63606;52.328;20.964;2022-09-27T06:43:28;71.35;;;24.92;;
73397;SDS011;63606;52.328;20.964;2022-09-27T06:45:54;75.35;;;25.30;;
73397;SDS011;63606;52.328;20.964;2022-09-27T06:48:20;72.93;;;23.17;;
73397;SDS011;63606;52.328;20.964;2022-09-27T06:50:46;74.40;;;24.38;;
73397;SDS011;63606;52.328;20.964;2022-09-27T06:53:13;70.22;;;23.25;;
73397;SDS011;63606;52.328;20.964;2022-09-27T06:55:41;64.78;;;23.75;;
73397;SDS011;63606;52.328;20.964;2022-09-27T06:58:08;73.28;;;24.13;;
73397;SDS011;63606;52.328;20.964;2022-09-27T07:00:53;65.75;;;21.77;;
73397;SDS011;63606;52.328;20.964;2022-09-27T07:03:20;59.05;;;20.55;;
73397;SDS011;63606;52.328;20.964;2022-09-27T07:06:04;56.75;;;21.55;;
73397;SDS011;63606;52.328;20.964;2022-09-27T07:08:31;52.15;;;19.80;;
73397;SDS011;63606;52.328;20.964;2022-09-27T07:11:02;51.45;;;17.67;;
73397;SDS011;63606;52.328;20.964;2022-09-27T07:13:29;52.10;;;21.40;;
73397;SDS011;63606;52.328;20.964;2022-09-27T07:15:57;50.63;;;18.35;;
73397;SDS011;63606;52.328;20.964;2022-09-27T07:18:23;42.35;;;16.80;;
73397;SDS011;63606;52.328;20.964;2022-09-27T07:20:48;48.17;;;18.70;;
73397;SDS011;63606;52.328;20.964;2022-09-27T07:23:15;49.03;;;18.00;;
73397;SDS011;63606;52.328;20.964;2022-09-27T07:25:41;43.05;;;17.38;;
73397;SDS011;63606;52.328;20.964;2022-09-27T07:28:08;49.88;;;18.77;;
73397;SDS011;63606;52.328;20.964;2022-09-27T07:30:39;52.17;;;18.77;;
73397;SDS011;63606;52.328;20.964;2022-09-27T07:33:06;51.15;;;18.83;;
73397;SDS011;63606;52.328;20.964;2022-09-27T07:35:32;49.97;;;18.42;;
73397;SDS011;63606;52.328;20.964;2022-09-27T07:37:59;52.72;;;19.27;;
73397;SDS011;63606;52.328;20.964;2022-09-27T07:40:25;57.08;;;20.83;;
73397;SDS011;63606;52.328;20.964;2022-09-27T07:42:54;53.22;;;19.67;;
73397;SDS011;63606;52.328;20.964;2022-09-27T07:45:20;54.50;;;20.17;;
73397;SDS011;63606;52.328;20.964;2022-09-27T07:47:47;49.05;;;18.77;;
73397;SDS011;63606;52.328;20.964;2022-09-27T07:50:13;53.78;;;20.13;;
73397;SDS011;63606;52.328;20.964;2022-09-27T07:52:39;57.60;;;19.90;;
73397;SDS011;63606;52.328;20.964;2022-09-27T07:55:06;57.33;;;21.02;;
73397;SDS011;63606;52.328;20.964;2022-09-27T07:57:34;56.38;;;20.95;;
73397;SDS011;63606;52.328;20.964;2022-09-27T08:00:01;54.55;;;20.58;;
73397;SDS011;63606;52.328;20.964;2022-09-27T08:02:31;56.75;;;20.77;;
73397;SDS011;63606;52.328;20.964;2022-09-27T08:05:00;53.78;;;20.48;;
73397;SDS011;63606;52.328;20.964;2022-09-27T08:07:26;52.35;;;20.25;;
73397;SDS011;63606;52.328;20.964;2022-09-27T08:09:53;56.38;;;21.75;;
73397;SDS011;63606;52.328;20.964;2022-09-27T08:12:19;43.97;;;19.77;;
73397;SDS011;63606;52.328;20.964;2022-09-27T08:14:48;49.75;;;20.83;;
73397;SDS011;63606;52.328;20.964;2022-09-27T08:17:14;51.35;;;22.92;;
73397;SDS011;63606;52.328;20.964;2022-09-27T08:19:40;51.00;;;21.85;;
73397;SDS011;63606;52.328;20.964;2022-09-27T08:22:08;46.10;;;20.15;;
73397;SDS011;63606;52.328;20.964;2022-09-27T08:24:34;45.40;;;21.63;;
73397;SDS011;63606;52.328;20.964;2022-09-27T08:27:03;44.35;;;20.85;;
73397;SDS011;63606;52.328;20.964;2022-09-27T08:29:29;49.05;;;19.63;;
73397;SDS011;63606;52.328;20.964;2022-09-27T08:31:55;48.70;;;20.02;;
73397;SDS011;63606;52.328;20.964;2022-09-27T08:34:21;45.22;;;19.30;;
73397;SDS011;63606;52.328;20.964;2022-09-27T08:36:47;45.80;;;19.60;;
73397;SDS011;63606;52.328;20.964;2022-09-27T08:39:13;44.97;;;20.15;;
73397;SDS011;63606;52.328;20.964;2022-09-27T08:41:44;46.75;;;21.63;;
73397;SDS011;63606;52.328;20.964;2022-09-27T08:47:01;53.05;;;22.27;;
73397;SDS011;63606;52.328;20.964;2022-09-27T08:49:39;52.92;;;21.98;;
73397;SDS011;63606;52.328;20.964;2022-09-27T08:52:31;47.65;;;21.33;;
73397;SDS011;63606;52.328;20.964;2022-09-27T08:55:02;49.20;;;22.30;;
73397;SDS011;63606;52.328;20.964;2022-09-27T08:57:30;43.13;;;20.77;;
73397;SDS011;63606;52.328;20.964;2022-09-27T09:00:07;46.30;;;21.77;;
73397;SDS011;63606;52.328;20.964;2022-09-27T09:02:36;38.47;;;20.38;;
73397;SDS011;63606;52.328;20.964;2022-09-27T09:05:06;39.25;;;19.92;;
73397;SDS011;63606;52.328;20.964;2022-09-27T09:10:10;42.90;;;21.10;;
73397;SDS011;63606;52.328;20.964;2022-09-27T09:35:08;36.92;;;18.23;;
73397;SDS011;63606;52.328;20.964;2022-09-27T09:37:40;36.78;;;19.38;;
73397;SDS011;63606;52.328;20.964;2022-09-27T09:40:16;33.92;;;17.80;;
73397;SDS011;63606;52.328;20.964;2022-09-27T09:45:33;32.97;;;17.20;;
73397;SDS011;63606;52.328;20.964;2022-09-27T09:48:09;30.95;;;17.00;;
73397;SDS011;63606;52.328;20.964;2022-09-27T09:50:52;28.27;;;15.45;;
73397;SDS011;63606;52.328;20.964;2022-09-27T10:02:02;34.78;;;17.25;;
73397;SDS011;63606;52.328;20.964;2022-09-27T10:04:27;32.25;;;18.23;;
73397;SDS011;63606;52.328;20.964;2022-09-27T10:06:53;31.73;;;15.60;;
73397;SDS011;63606;52.328;20.964;2022-09-27T10:09:24;30.75;;;16.35;;
73397;SDS011;63606;52.328;20.964;2022-09-27T10:11:51;26.95;;;14.98;;
73397;SDS011;63606;52.328;20.964;2022-09-27T10:14:19;30.75;;;15.95;;
73397;SDS011;63606;52.328;20.964;2022-09-27T10:16:46;28.83;;;15.25;;
73397;SDS011;63606;52.328;20.964;2022-09-27T10:19:22;25.38;;;14.95;;
73397;SDS011;63606;52.328;20.964;2022-09-27T10:21:57;29.75;;;16.48;;
73397;SDS011;63606;52.328;20.964;2022-09-27T10:24:26;27.98;;;15.77;;
73397;SDS011;63606;52.328;20.964;2022-09-27T10:26:55;29.83;;;16.52;;
73397;SDS011;63606;52.328;20.964;2022-09-27T10:29:27;24.48;;;14.40;;
73397;SDS011;63606;52.328;20.964;2022-09-27T10:31:55;25.58;;;14.60;;
73397;SDS011;63606;52.328;20.964;2022-09-27T10:37:02;25.02;;;14.48;;
73397;SDS011;63606;52.328;20.964;2022-09-27T10:39:30;23.58;;;14.27;;
73397;SDS011;63606;52.328;20.964;2022-09-27T10:41:55;25.13;;;14.93;;
73397;SDS011;63606;52.328;20.964;2022-09-27T10:46:47;24.15;;;14.27;;
73397;SDS011;63606;52.328;20.964;2022-09-27T10:51:50;20.80;;;13.85;;
73397;SDS011;63606;52.328;20.964;2022-09-27T10:54:19;22.65;;;13.00;;
73397;SDS011;63606;52.328;20.964;2022-09-27T10:56:57;22.30;;;13.05;;
73397;SDS011;63606;52.328;20.964;2022-09-27T10:59:23;22.40;;;13.00;;
73397;SDS011;63606;52.328;20.964;2022-09-27T11:01:52;23.65;;;13.30;;
73397;SDS011;63606;52.328;20.964;2022-09-27T11:07:02;24.77;;;14.07;;
73397;SDS011;63606;52.328;20.964;2022-09-27T11:09:46;27.30;;;14.48;;
73397;SDS011;63606;52.328;20.964;2022-09-27T11:12:27;27.13;;;14.82;;
73397;SDS011;63606;52.328;20.964;2022-09-27T11:14:55;27.88;;;14.77;;
73397;SDS011;63606;52.328;20.964;2022-09-27T11:20:36;29.75;;;15.75;;
73397;SDS011;63606;52.328;20.964;2022-09-27T11:23:26;28.88;;;15.10;;
73397;SDS011;63606;52.328;20.964;2022-09-27T11:39:32;23.48;;;13.38;;
73397;SDS011;63606;52.328;20.964;2022-09-27T11:42:07;26.75;;;15.20;;
73397;SDS011;63606;52.328;20.964;2022-09-27T11:48:06;25.02;;;15.45;;
73397;SDS011;63606;52.328;20.964;2022-09-27T11:50:50;26.38;;;16.17;;
73397;SDS011;63606;52.328;20.964;2022-09-27T12:02:04;22.65;;;14.18;;
73397;SDS011;63606;52.328;20.964;2022-09-27T12:04:40;21.52;;;12.95;;
73397;SDS011;63606;52.328;20.964;2022-09-27T12:07:38;28.05;;;14.25;;
73397;SDS011;63606;52.328;20.964;2022-09-27T12:10:10;22.33;;;13.90;;
73397;SDS011;63606;52.328;20.964;2022-09-27T12:15:16;22.40;;;13.63;;
73397;SDS011;63606;52.328;20.964;2022-09-27T12:17:46;24.85;;;14.77;;
73397;SDS011;63606;52.328;20.964;2022-09-27T12:22:57;23.83;;;14.48;;
73397;SDS011;63606;52.328;20.964;2022-09-27T12:25:35;23.38;;;14.13;;
73397;SDS011;63606;52.328;20.964;2022-09-27T12:28:17;24.10;;;15.98;;
73397;SDS011;63606;52.328;20.964;2022-09-27T12:30:45;24.02;;;13.93;;
73397;SDS011;63606;52.328;20.964;2022-09-27T12:33:25;22.45;;;13.80;;
73397;SDS011;63606;52.328;20.964;2022-09-27T12:36:00;19.88;;;12.85;;
73397;SDS011;63606;52.328;20.964;2022-09-27T12:41:26;21.00;;;11.73;;
73397;SDS011;63606;52.328;20.964;2022-09-27T12:43:56;20.85;;;13.35;;
73397;SDS011;63606;52.328;20.964;2022-09-27T12:49:11;20.92;;;12.18;;
73397;SDS011;63606;52.328;20.964;2022-09-27T12:51:50;20.00;;;11.60;;
73397;SDS011;63606;52.328;20.964;2022-09-27T12:57:12;17.25;;;10.38;;
73397;SDS011;63606;52.328;20.964;2022-09-27T13:05:24;17.42;;;10.32;;
73397;SDS011;63606;52.328;20.964;2022-09-27T13:13:17;18.20;;;9.32;;
73397;SDS011;63606;52.328;20.964;2022-09-27T13:15:45;17.42;;;9.73;;
73397;SDS011;63606;52.328;20.964;2022-09-27T13:18:28;16.77;;;9.98;;
73397;SDS011;63606;52.328;20.964;2022-09-27T13:20:54;17.75;;;9.65;;
73397;SDS011;63606;52.328;20.964;2022-09-27T13:25:47;15.50;;;9.73;;
73397;SDS011;63606;52.328;20.964;2022-09-27T13:28:30;15.45;;;9.50;;
73397;SDS011;63606;52.328;20.964;2022-09-27T13:31:05;16.70;;;10.18;;
73397;SDS011;63606;52.328;20.964;2022-09-27T13:47:04;12.70;;;8.20;;
73397;SDS011;63606;52.328;20.964;2022-09-27T13:49:45;14.40;;;8.30;;
73397;SDS011;63606;52.328;20.964;2022-09-27T13:52:27;13.88;;;8.93;;
73397;SDS011;63606;52.328;20.964;2022-09-27T13:54:58;12.52;;;8.07;;
73397;SDS011;63606;52.328;20.964;2022-09-27T14:00:22;12.93;;;8.02;;
73397;SDS011;63606;52.328;20.964;2022-09-27T14:02:54;13.27;;;8.15;;
73397;SDS011;63606;52.328;20.964;2022-09-27T14:05:49;12.45;;;8.18;;
73397;SDS011;63606;52.328;20.964;2022-09-27T14:08:32;11.02;;;7.63;;
73397;SDS011;63606;52.328;20.964;2022-09-27T14:11:02;12.73;;;7.97;;
73397;SDS011;63606;52.328;20.964;2022-09-27T14:13:34;13.75;;;8.18;;
73397;SDS011;63606;52.328;20.964;2022-09-27T14:16:02;12.57;;;8.48;;
73397;SDS011;63606;52.328;20.964;2022-09-27T14:18:29;13.43;;;8.10;;
73397;SDS011;63606;52.328;20.964;2022-09-27T14:23:45;13.57;;;7.53;;
73397;SDS011;63606;52.328;20.964;2022-09-27T14:26:20;12.80;;;7.85;;
73397;SDS011;63606;52.328;20.964;2022-09-27T14:28:47;12.02;;;7.38;;
73397;SDS011;63606;52.328;20.964;2022-09-27T14:33:47;11.05;;;7.10;;
73397;SDS011;63606;52.328;20.964;2022-09-27T14:36:32;13.50;;;7.85;;
73397;SDS011;63606;52.328;20.964;2022-09-27T14:39:21;12.13;;;7.85;;
73397;SDS011;63606;52.328;20.964;2022-09-27T14:41:59;9.30;;;6.47;;
73397;SDS011;63606;52.328;20.964;2022-09-27T14:44:26;11.15;;;7.03;;
73397;SDS011;63606;52.328;20.964;2022-09-27T14:47:09;11.95;;;7.75;;
73397;SDS011;63606;52.328;20.964;2022-09-27T14:49:57;12.07;;;7.57;;
73397;SDS011;63606;52.328;20.964;2022-09-27T14:52:28;10.02;;;7.13;;
73397;SDS011;63606;52.328;20.964;2022-09-27T14:54:59;11.15;;;7.05;;
73397;SDS011;63606;52.328;20.964;2022-09-27T14:57:31;10.15;;;7.03;;
73397;SDS011;63606;52.328;20.964;2022-09-27T15:02:47;11.50;;;7.22;;
73397;SDS011;63606;52.328;20.964;2022-09-27T15:05:18;10.93;;;7.63;;
73397;SDS011;63606;52.328;20.964;2022-09-27T15:07:47;10.77;;;7.13;;
73397;SDS011;63606;52.328;20.964;2022-09-27T15:10:19;14.52;;;8.13;;
73397;SDS011;63606;52.328;20.964;2022-09-27T15:12:49;10.23;;;6.72;;
73397;SDS011;63606;52.328;20.964;2022-09-27T15:15:22;10.48;;;6.95;;
73397;SDS011;63606;52.328;20.964;2022-09-27T15:17:50;11.63;;;7.35;;
73397;SDS011;63606;52.328;20.964;2022-09-27T15:22:44;13.52;;;7.10;;
73397;SDS011;63606;52.328;20.964;2022-09-27T15:25:16;10.70;;;6.43;;
73397;SDS011;63606;52.328;20.964;2022-09-27T15:27:53;13.70;;;7.32;;
73397;SDS011;63606;52.328;20.964;2022-09-27T15:30:24;11.65;;;7.43;;
73397;SDS011;63606;52.328;20.964;2022-09-27T15:32:53;12.13;;;7.40;;
73397;SDS011;63606;52.328;20.964;2022-09-27T15:35:38;8.85;;;6.68;;
73397;SDS011;63606;52.328;20.964;2022-09-27T15:38:11;9.88;;;6.40;;
73397;SDS011;63606;52.328;20.964;2022-09-27T15:43:22;10.40;;;7.18;;
73397;SDS011;63606;52.328;20.964;2022-09-27T15:45:56;9.88;;;6.28;;
73397;SDS011;63606;52.328;20.964;2022-09-27T15:48:26;12.32;;;7.28;;
73397;SDS011;63606;52.328;20.964;2022-09-27T15:50:52;9.93;;;6.55;;
73397;SDS011;63606;52.328;20.964;2022-09-27T15:55:59;10.60;;;7.13;;
73397;SDS011;63606;52.328;20.964;2022-09-27T15:58:26;11.82;;;7.55;;
73397;SDS011;63606;52.328;20.964;2022-09-27T16:03:19;11.02;;;7.55;;
73397;SDS011;63606;52.328;20.964;2022-09-27T16:05:45;13.05;;;7.78;;
73397;SDS011;63606;52.328;20.964;2022-09-27T16:08:11;10.35;;;7.40;;
73397;SDS011;63606;52.328;20.964;2022-09-27T16:10:37;12.88;;;8.15;;
73397;SDS011;63606;52.328;20.964;2022-09-27T16:13:05;13.88;;;8.32;;
73397;SDS011;63606;52.328;20.964;2022-09-27T16:15:30;13.88;;;8.18;;
73397;SDS011;63606;52.328;20.964;2022-09-27T16:17:56;12.98;;;8.65;;
73397;SDS011;63606;52.328;20.964;2022-09-27T16:20:23;15.25;;;8.52;;
73397;SDS011;63606;52.328;20.964;2022-09-27T16:22:54;13.40;;;7.55;;
73397;SDS011;63606;52.328;20.964;2022-09-27T16:25:21;14.20;;;8.25;;
73397;SDS011;63606;52.328;20.964;2022-09-27T16:27:48;14.10;;;8.02;;
73397;SDS011;63606;52.328;20.964;2022-09-27T16:30:15;14.55;;;7.90;;
73397;SDS011;63606;52.328;20.964;2022-09-27T16:32:45;14.23;;;8.10;;
73397;SDS011;63606;52.328;20.964;2022-09-27T16:35:12;12.45;;;7.80;;
73397;SDS011;63606;52.328;20.964;2022-09-27T16:37:39;13.63;;;8.07;;
73397;SDS011;63606;52.328;20.964;2022-09-27T16:40:06;14.63;;;8.82;;
73397;SDS011;63606;52.328;20.964;2022-09-27T16:42:33;12.90;;;7.90;;
73397;SDS011;63606;52.328;20.964;2022-09-27T16:44:59;15.20;;;8.02;;
73397;SDS011;63606;52.328;20.964;2022-09-27T16:47:26;12.85;;;8.02;;
73397;SDS011;63606;52.328;20.964;2022-09-27T16:49:52;13.70;;;7.78;;
73397;SDS011;63606;52.328;20.964;2022-09-27T16:52:36;13.77;;;8.07;;
73397;SDS011;63606;52.328;20.964;2022-09-27T16:55:02;16.50;;;8.80;;
73397;SDS011;63606;52.328;20.964;2022-09-27T16:57:28;13.65;;;8.35;;
73397;SDS011;63606;52.328;20.964;2022-09-27T16:59:54;11.75;;;6.90;;
73397;SDS011;63606;52.328;20.964;2022-09-27T17:02:21;11.20;;;7.57;;
73397;SDS011;63606;52.328;20.964;2022-09-27T17:04:48;11.27;;;7.72;;
73397;SDS011;63606;52.328;20.964;2022-09-27T17:07:14;11.75;;;7.80;;
73397;SDS011;63606;52.328;20.964;2022-09-27T17:09:40;11.57;;;7.80;;
73397;SDS011;63606;52.328;20.964;2022-09-27T17:12:06;16.58;;;8.77;;
73397;SDS011;63606;52.328;20.964;2022-09-27T17:14:31;13.30;;;9.05;;
73397;SDS011;63606;52.328;20.964;2022-09-27T17:16:57;12.95;;;8.50;;
73397;SDS011;63606;52.328;20.964;2022-09-27T17:19:23;14.65;;;9.27;;
73397;SDS011;63606;52.328;20.964;2022-09-27T17:21:48;14.68;;;8.52;;
73397;SDS011;63606;52.328;20.964;2022-09-27T17:24:14;14.52;;;8.40;;
73397;SDS011;63606;52.328;20.964;2022-09-27T17:26:40;13.27;;;8.30;;
73397;SDS011;63606;52.328;20.964;2022-09-27T17:29:06;14.80;;;9.70;;
73397;SDS011;63606;52.328;20.964;2022-09-27T17:31:35;13.15;;;8.23;;
73397;SDS011;63606;52.328;20.964;2022-09-27T17:34:02;12.32;;;8.60;;
73397;SDS011;63606;52.328;20.964;2022-09-27T17:36:28;16.45;;;9.20;;
73397;SDS011;63606;52.328;20.964;2022-09-27T17:38:58;13.95;;;8.38;;
73397;SDS011;63606;52.328;20.964;2022-09-27T17:41:25;18.75;;;9.30;;
73397;SDS011;63606;52.328;20.964;2022-09-27T17:43:59;13.82;;;8.75;;